PDT5964 KCLT-KAGS
Flight info
| Callsign | PDT5964 |
|---|---|
| Flight time | 0h 40m |
| Altitude | 16000 |
| Route | BEAVY6 GANDT |
| Aircraft | E145/M-SDFGIRW/S |
Departure
| Time | 2026-05-04 12:21 |
|---|---|
| Airport | Charlotte Douglas International Airport (KCLT) |
Arrival
| Time | 2026-05-04 13:02 |
|---|---|
| Airport | Augusta Regional At Bush Field (KAGS) |
| Time | Latitude | Longitude | Altitude | Speed | Heading |
|---|---|---|---|---|---|
| 2026-05-04 11:37 | 35.22517 | -80.94119 | 731 ft | 0 kts | 87° |
| 2026-05-04 12:14 | 35.22493 | -80.94173 | 729 ft | 0 kts | 358° |
| 2026-05-04 12:16 | 35.22499 | -80.94173 | 729 ft | 1 kts | 359° |
| 2026-05-04 12:17 | 35.22517 | -80.94173 | 730 ft | 3 kts | 359° |
| 2026-05-04 12:17 | 35.22546 | -80.94173 | 730 ft | 5 kts | 1° |
| 2026-05-04 12:17 | 35.22593 | -80.94161 | 731 ft | 7 kts | 22° |
| 2026-05-04 12:17 | 35.22639 | -80.94134 | 733 ft | 7 kts | 29° |
| 2026-05-04 12:18 | 35.22665 | -80.94075 | 733 ft | 9 kts | 86° |
| 2026-05-04 12:18 | 35.22670 | -80.93987 | 733 ft | 11 kts | 86° |
| 2026-05-04 12:18 | 35.22651 | -80.93896 | 735 ft | 11 kts | 134° |
| 2026-05-04 12:18 | 35.22572 | -80.93876 | 735 ft | 11 kts | 175° |
| 2026-05-04 12:19 | 35.22521 | -80.93810 | 736 ft | 11 kts | 129° |
| 2026-05-04 12:19 | 35.22504 | -80.93743 | 738 ft | 7 kts | 83° |
| 2026-05-04 12:19 | 35.22509 | -80.93675 | 739 ft | 8 kts | 86° |
| 2026-05-04 12:19 | 35.22486 | -80.93617 | 739 ft | 9 kts | 171° |
| 2026-05-04 12:20 | 35.22454 | -80.93615 | 739 ft | 0 kts | 175° |
| 2026-05-04 12:20 | 35.22452 | -80.93614 | 739 ft | 1 kts | 175° |
| 2026-05-04 12:20 | 35.22402 | -80.93610 | 739 ft | 27 kts | 176° |
| 2026-05-04 12:21 | 35.21931 | -80.93571 | 736 ft | 104 kts | 175° |
| 2026-05-04 12:21 | 35.20997 | -80.93494 | 752 ft | 154 kts | 176° |
| 2026-05-04 12:21 | 35.19888 | -80.93387 | 1188 ft | 168 kts | 176° |
| 2026-05-04 12:21 | 35.18679 | -80.93264 | 1753 ft | 184 kts | 178° |
| 2026-05-04 12:22 | 35.17388 | -80.93148 | 2531 ft | 189 kts | 179° |
| 2026-05-04 12:22 | 35.16015 | -80.93010 | 3017 ft | 208 kts | 179° |
| 2026-05-04 12:22 | 35.14446 | -80.92879 | 3108 ft | 241 kts | 186° |
| 2026-05-04 12:22 | 35.12820 | -80.93425 | 3674 ft | 247 kts | 204° |
| 2026-05-04 12:23 | 35.11184 | -80.94087 | 4533 ft | 248 kts | 201° |
| 2026-05-04 12:23 | 35.09545 | -80.94726 | 5275 ft | 253 kts | 201° |
| 2026-05-04 12:23 | 35.07845 | -80.95381 | 5999 ft | 258 kts | 201° |
| 2026-05-04 12:23 | 35.06114 | -80.96046 | 6687 ft | 263 kts | 201° |
| 2026-05-04 12:24 | 35.04377 | -80.96712 | 7404 ft | 266 kts | 201° |
| 2026-05-04 12:24 | 35.02584 | -80.97401 | 8098 ft | 270 kts | 201° |
| 2026-05-04 12:24 | 35.00775 | -80.98095 | 8767 ft | 275 kts | 201° |
| 2026-05-04 12:24 | 34.98943 | -80.98797 | 9440 ft | 279 kts | 201° |
| 2026-05-04 12:25 | 34.97085 | -80.99509 | 10123 ft | 282 kts | 202° |
| 2026-05-04 12:25 | 34.95221 | -81.00223 | 10675 ft | 289 kts | 202° |
| 2026-05-04 12:25 | 34.93247 | -81.00980 | 11099 ft | 301 kts | 202° |
| 2026-05-04 12:25 | 34.91196 | -81.01764 | 11522 ft | 312 kts | 202° |
| 2026-05-04 12:26 | 34.89114 | -81.02560 | 11966 ft | 321 kts | 202° |
| 2026-05-04 12:26 | 34.86946 | -81.03389 | 12450 ft | 329 kts | 202° |
| 2026-05-04 12:26 | 34.84752 | -81.04226 | 13027 ft | 333 kts | 202° |
| 2026-05-04 12:26 | 34.82531 | -81.05074 | 13633 ft | 334 kts | 202° |
| 2026-05-04 12:27 | 34.80285 | -81.05854 | 14176 ft | 340 kts | 196° |
| 2026-05-04 12:27 | 34.77917 | -81.06287 | 14732 ft | 344 kts | 193° |
| 2026-05-04 12:27 | 34.75551 | -81.06722 | 15268 ft | 346 kts | 193° |
| 2026-05-04 12:27 | 34.73166 | -81.07159 | 15810 ft | 348 kts | 193° |
| 2026-05-04 12:28 | 34.70740 | -81.07606 | 15948 ft | 358 kts | 193° |
| 2026-05-04 12:28 | 34.68262 | -81.08058 | 15984 ft | 360 kts | 193° |
| 2026-05-04 12:28 | 34.65797 | -81.08509 | 15956 ft | 356 kts | 193° |
| 2026-05-04 12:28 | 34.63344 | -81.08958 | 15968 ft | 353 kts | 193° |
| 2026-05-04 12:29 | 34.60922 | -81.09401 | 15975 ft | 350 kts | 193° |
| 2026-05-04 12:29 | 34.58524 | -81.09840 | 15963 ft | 348 kts | 193° |
| 2026-05-04 12:29 | 34.56134 | -81.10294 | 15972 ft | 346 kts | 194° |
| 2026-05-04 12:29 | 34.53765 | -81.10806 | 15977 ft | 346 kts | 194° |
| 2026-05-04 12:30 | 34.51393 | -81.11315 | 15980 ft | 347 kts | 194° |
| 2026-05-04 12:30 | 34.49007 | -81.11827 | 15979 ft | 347 kts | 194° |
| 2026-05-04 12:30 | 34.46622 | -81.12338 | 15984 ft | 348 kts | 194° |
| 2026-05-04 12:30 | 34.44227 | -81.12851 | 15978 ft | 348 kts | 194° |
| 2026-05-04 12:31 | 34.41862 | -81.13357 | 15982 ft | 349 kts | 194° |
| 2026-05-04 12:31 | 34.39462 | -81.13871 | 15987 ft | 349 kts | 194° |
| 2026-05-04 12:31 | 34.37110 | -81.14624 | 15976 ft | 342 kts | 210° |
| 2026-05-04 12:31 | 34.35180 | -81.16215 | 15995 ft | 335 kts | 223° |
| 2026-05-04 12:32 | 34.33369 | -81.17953 | 15981 ft | 336 kts | 223° |
| 2026-05-04 12:32 | 34.29695 | -81.21485 | 15983 ft | 336 kts | 223° |
| 2026-05-04 12:32 | 34.27867 | -81.23242 | 15985 ft | 336 kts | 223° |
| 2026-05-04 12:33 | 34.26054 | -81.24986 | 15981 ft | 337 kts | 223° |
| 2026-05-04 12:33 | 34.24221 | -81.26755 | 15966 ft | 337 kts | 223° |
| 2026-05-04 12:33 | 34.22391 | -81.28519 | 15977 ft | 336 kts | 223° |
| 2026-05-04 12:33 | 34.20546 | -81.30303 | 15979 ft | 336 kts | 223° |
| 2026-05-04 12:34 | 34.18725 | -81.32072 | 15977 ft | 336 kts | 223° |
| 2026-05-04 12:34 | 34.16896 | -81.33845 | 15980 ft | 337 kts | 223° |
| 2026-05-04 12:34 | 34.15072 | -81.35621 | 15982 ft | 337 kts | 223° |
| 2026-05-04 12:34 | 34.13251 | -81.37395 | 15982 ft | 337 kts | 223° |
| 2026-05-04 12:35 | 34.11445 | -81.39151 | 15982 ft | 337 kts | 223° |
| 2026-05-04 12:35 | 34.09613 | -81.40943 | 15977 ft | 337 kts | 223° |
| 2026-05-04 12:35 | 34.07780 | -81.42738 | 15974 ft | 337 kts | 223° |
| 2026-05-04 12:35 | 34.05977 | -81.44504 | 15975 ft | 337 kts | 223° |
| 2026-05-04 12:36 | 34.04152 | -81.46294 | 15981 ft | 337 kts | 223° |
| 2026-05-04 12:36 | 34.02341 | -81.48072 | 15982 ft | 337 kts | 223° |
| 2026-05-04 12:36 | 34.00499 | -81.49820 | 15975 ft | 339 kts | 218° |
| 2026-05-04 12:36 | 33.98539 | -81.51456 | 15978 ft | 338 kts | 220° |
| 2026-05-04 12:37 | 33.96671 | -81.53148 | 15981 ft | 337 kts | 221° |
| 2026-05-04 12:37 | 33.94793 | -81.54853 | 15974 ft | 338 kts | 221° |
| 2026-05-04 12:37 | 33.92904 | -81.56570 | 15978 ft | 338 kts | 221° |
| 2026-05-04 12:37 | 33.91033 | -81.58272 | 15979 ft | 338 kts | 221° |
| 2026-05-04 12:38 | 33.89119 | -81.59929 | 15980 ft | 338 kts | 219° |
| 2026-05-04 12:38 | 33.87215 | -81.61548 | 15981 ft | 338 kts | 219° |
| 2026-05-04 12:38 | 33.85286 | -81.63193 | 15980 ft | 339 kts | 219° |
| 2026-05-04 12:38 | 33.83362 | -81.64832 | 15984 ft | 338 kts | 219° |
| 2026-05-04 12:39 | 33.81445 | -81.66468 | 15988 ft | 338 kts | 219° |
| 2026-05-04 12:39 | 33.79524 | -81.68104 | 15990 ft | 338 kts | 219° |
| 2026-05-04 12:39 | 33.77607 | -81.69737 | 15992 ft | 337 kts | 219° |
| 2026-05-04 12:39 | 33.75686 | -81.71370 | 15995 ft | 337 kts | 217° |
| 2026-05-04 12:40 | 33.73532 | -81.72502 | 15879 ft | 343 kts | 195° |
| 2026-05-04 12:40 | 33.71139 | -81.72517 | 15642 ft | 347 kts | 170° |
| 2026-05-04 12:40 | 33.68830 | -81.71664 | 15420 ft | 345 kts | 165° |
| 2026-05-04 12:40 | 33.66546 | -81.70824 | 15179 ft | 343 kts | 165° |
| 2026-05-04 12:41 | 33.64255 | -81.69991 | 14949 ft | 342 kts | 165° |
| 2026-05-04 12:41 | 33.61986 | -81.69173 | 14672 ft | 337 kts | 165° |
| 2026-05-04 12:41 | 33.59753 | -81.68378 | 14222 ft | 333 kts | 165° |
| 2026-05-04 12:41 | 33.57545 | -81.67604 | 13773 ft | 329 kts | 165° |
| 2026-05-04 12:42 | 33.55368 | -81.66859 | 13335 ft | 322 kts | 165° |
| 2026-05-04 12:42 | 33.53232 | -81.66142 | 12881 ft | 316 kts | 165° |
| 2026-05-04 12:42 | 33.51125 | -81.65443 | 12460 ft | 311 kts | 165° |
| 2026-05-04 12:42 | 33.49044 | -81.64759 | 12020 ft | 307 kts | 165° |
| 2026-05-04 12:43 | 33.46985 | -81.64088 | 11544 ft | 303 kts | 165° |
| 2026-05-04 12:43 | 33.44955 | -81.63439 | 11049 ft | 300 kts | 165° |
| 2026-05-04 12:43 | 33.42955 | -81.62814 | 10597 ft | 297 kts | 165° |
| 2026-05-04 12:43 | 33.40964 | -81.62203 | 10156 ft | 294 kts | 165° |
| 2026-05-04 12:44 | 33.39008 | -81.61607 | 9914 ft | 290 kts | 165° |
| 2026-05-04 12:44 | 33.37054 | -81.61012 | 9661 ft | 287 kts | 165° |
| 2026-05-04 12:44 | 33.35131 | -81.60428 | 9320 ft | 283 kts | 165° |
| 2026-05-04 12:44 | 33.33225 | -81.59844 | 8956 ft | 280 kts | 165° |
| 2026-05-04 12:45 | 33.31349 | -81.59267 | 8597 ft | 277 kts | 165° |
| 2026-05-04 12:45 | 33.29493 | -81.58691 | 8229 ft | 273 kts | 165° |
| 2026-05-04 12:45 | 33.27673 | -81.58128 | 8004 ft | 269 kts | 165° |
| 2026-05-04 12:45 | 33.25868 | -81.57573 | 7719 ft | 267 kts | 165° |
| 2026-05-04 12:46 | 33.24074 | -81.57018 | 7467 ft | 264 kts | 165° |
| 2026-05-04 12:46 | 33.22290 | -81.56466 | 7220 ft | 262 kts | 165° |
| 2026-05-04 12:46 | 33.20547 | -81.55924 | 6972 ft | 260 kts | 165° |
| 2026-05-04 12:46 | 33.18797 | -81.55372 | 6718 ft | 258 kts | 165° |
| 2026-05-04 12:47 | 33.17060 | -81.54820 | 6468 ft | 258 kts | 165° |
| 2026-05-04 12:47 | 33.15321 | -81.54262 | 6220 ft | 259 kts | 165° |
| 2026-05-04 12:47 | 33.13577 | -81.53697 | 5975 ft | 259 kts | 165° |
| 2026-05-04 12:47 | 33.11833 | -81.53126 | 5726 ft | 260 kts | 165° |
| 2026-05-04 12:48 | 33.10093 | -81.52551 | 5482 ft | 260 kts | 165° |
| 2026-05-04 12:48 | 33.08344 | -81.51967 | 5235 ft | 260 kts | 165° |
| 2026-05-04 12:48 | 33.06595 | -81.51402 | 4986 ft | 259 kts | 170° |
| 2026-05-04 12:48 | 33.04836 | -81.51566 | 4746 ft | 254 kts | 202° |
| 2026-05-04 12:49 | 33.03469 | -81.52788 | 4568 ft | 239 kts | 234° |
| 2026-05-04 12:49 | 33.02678 | -81.54459 | 4323 ft | 230 kts | 243° |
| 2026-05-04 12:49 | 33.01937 | -81.56138 | 4072 ft | 229 kts | 243° |
| 2026-05-04 12:49 | 33.01212 | -81.57792 | 3813 ft | 218 kts | 244° |
| 2026-05-04 12:50 | 33.00874 | -81.59493 | 3555 ft | 208 kts | 263° |
| 2026-05-04 12:50 | 33.00704 | -81.61152 | 3401 ft | 196 kts | 263° |
| 2026-05-04 12:50 | 33.00542 | -81.62717 | 3223 ft | 187 kts | 263° |
| 2026-05-04 12:50 | 33.00386 | -81.64229 | 3015 ft | 181 kts | 263° |
| 2026-05-04 12:51 | 33.00236 | -81.65695 | 2807 ft | 176 kts | 263° |
| 2026-05-04 12:51 | 33.00095 | -81.67109 | 2606 ft | 173 kts | 263° |
| 2026-05-04 12:51 | 32.99953 | -81.68542 | 2408 ft | 173 kts | 263° |
| 2026-05-04 12:51 | 32.99815 | -81.69967 | 2209 ft | 173 kts | 263° |
| 2026-05-04 12:52 | 32.99689 | -81.71394 | 2016 ft | 173 kts | 267° |
| 2026-05-04 12:52 | 32.99987 | -81.72742 | 1983 ft | 163 kts | 292° |
| 2026-05-04 12:52 | 33.00437 | -81.73943 | 1967 ft | 153 kts | 292° |
| 2026-05-04 12:52 | 33.00861 | -81.75072 | 1972 ft | 151 kts | 291° |
| 2026-05-04 12:53 | 33.01310 | -81.76273 | 2004 ft | 167 kts | 292° |
| 2026-05-04 12:53 | 33.01798 | -81.77587 | 1994 ft | 177 kts | 291° |
| 2026-05-04 12:53 | 33.02298 | -81.78923 | 1979 ft | 175 kts | 294° |
| 2026-05-04 12:53 | 33.03101 | -81.79961 | 1986 ft | 173 kts | 321° |
| 2026-05-04 12:54 | 33.03986 | -81.80924 | 1980 ft | 168 kts | 313° |
| 2026-05-04 12:54 | 33.04815 | -81.81898 | 1977 ft | 166 kts | 313° |
| 2026-05-04 12:54 | 33.05627 | -81.82856 | 1978 ft | 164 kts | 313° |
| 2026-05-04 12:54 | 33.06442 | -81.83818 | 1984 ft | 165 kts | 313° |
| 2026-05-04 12:55 | 33.07261 | -81.84794 | 1984 ft | 167 kts | 310° |
| 2026-05-04 12:55 | 33.07954 | -81.85899 | 1985 ft | 168 kts | 303° |
| 2026-05-04 12:55 | 33.08635 | -81.87051 | 1984 ft | 170 kts | 303° |
| 2026-05-04 12:55 | 33.09320 | -81.88213 | 1986 ft | 171 kts | 303° |
| 2026-05-04 12:56 | 33.10105 | -81.89282 | 1977 ft | 174 kts | 325° |
| 2026-05-04 12:56 | 33.11206 | -81.89914 | 1992 ft | 176 kts | 335° |
| 2026-05-04 12:56 | 33.12369 | -81.90421 | 1988 ft | 178 kts | 339° |
| 2026-05-04 12:56 | 33.13574 | -81.90848 | 1991 ft | 180 kts | 342° |
| 2026-05-04 12:57 | 33.14796 | -81.91222 | 1986 ft | 181 kts | 343° |
| 2026-05-04 12:57 | 33.16023 | -81.91563 | 1988 ft | 180 kts | 345° |
| 2026-05-04 12:57 | 33.17257 | -81.91888 | 1986 ft | 180 kts | 345° |
| 2026-05-04 12:57 | 33.18487 | -81.92200 | 1985 ft | 180 kts | 346° |
| 2026-05-04 12:58 | 33.19714 | -81.92507 | 1985 ft | 180 kts | 346° |
| 2026-05-04 12:58 | 33.20950 | -81.92814 | 1987 ft | 179 kts | 346° |
| 2026-05-04 12:58 | 33.22177 | -81.93117 | 1985 ft | 179 kts | 346° |
| 2026-05-04 12:58 | 33.23397 | -81.93418 | 1982 ft | 179 kts | 346° |
| 2026-05-04 12:59 | 33.24608 | -81.93716 | 1990 ft | 179 kts | 345° |
| 2026-05-04 12:59 | 33.25831 | -81.94018 | 1989 ft | 179 kts | 345° |
| 2026-05-04 12:59 | 33.27060 | -81.94321 | 1965 ft | 179 kts | 346° |
| 2026-05-04 12:59 | 33.28209 | -81.94602 | 1746 ft | 158 kts | 346° |
| 2026-05-04 13:00 | 33.29231 | -81.94855 | 1557 ft | 144 kts | 346° |
| 2026-05-04 13:00 | 33.30207 | -81.95098 | 1354 ft | 140 kts | 346° |
| 2026-05-04 13:00 | 33.31152 | -81.95332 | 1162 ft | 135 kts | 346° |
| 2026-05-04 13:00 | 33.32058 | -81.95556 | 978 ft | 132 kts | 346° |
| 2026-05-04 13:01 | 33.32955 | -81.95770 | 802 ft | 130 kts | 347° |
| 2026-05-04 13:01 | 33.33846 | -81.95990 | 616 ft | 129 kts | 347° |
| 2026-05-04 13:01 | 33.34719 | -81.96209 | 446 ft | 129 kts | 347° |
| 2026-05-04 13:01 | 33.35607 | -81.96428 | 272 ft | 129 kts | 348° |
| 2026-05-04 13:02 | 33.36476 | -81.96646 | 138 ft | 122 kts | 348° |
| 2026-05-04 13:02 | 33.37123 | -81.96807 | 139 ft | 51 kts | 348° |
| 2026-05-04 13:02 | 33.37379 | -81.96870 | 140 ft | 16 kts | 345° |
| 2026-05-04 13:02 | 33.37395 | -81.96965 | 140 ft | 5 kts | 258° |
| 2026-05-04 13:03 | 33.37395 | -81.96966 | 140 ft | 0 kts | 258° |
| 2026-05-04 13:03 | 33.37394 | -81.96973 | 140 ft | 2 kts | 258° |
| 2026-05-04 13:03 | 33.37395 | -81.96996 | 140 ft | 3 kts | 306° |
| 2026-05-04 13:03 | 33.37426 | -81.97015 | 140 ft | 6 kts | 345° |
| 2026-05-04 13:04 | 33.37472 | -81.97032 | 141 ft | 7 kts | 316° |
| 2026-05-04 13:04 | 33.37470 | -81.97096 | 142 ft | 8 kts | 248° |
| 2026-05-04 13:04 | 33.37416 | -81.97117 | 142 ft | 10 kts | 169° |
| 2026-05-04 13:04 | 33.37339 | -81.97097 | 142 ft | 12 kts | 168° |
| 2026-05-04 13:05 | 33.37267 | -81.97107 | 142 ft | 10 kts | 263° |
| 2026-05-04 13:05 | 33.37305 | -81.97158 | 143 ft | 9 kts | 348° |
| 2026-05-04 13:05 | 33.37333 | -81.97164 | 143 ft | 2 kts | 350° |
| 2026-05-04 13:05 | 33.37344 | -81.97166 | 143 ft | 0 kts | 350° |